Time;durP1;ratioP1;P1;durP2;ratioP2;P2;SDS_P1;SDS_P2;PMS_P1;PMS_P2;Temp;Humidity;BMP_temperature;BMP_pressure;BME280_temperature;BME280_humidity;BME280_pressure;Samples;Min_cycle;Max_cycle;Signal;HPM_P1;HPM_P2
2023/05/11 00:00:46;;;;;;;43.28;8.50;;;11.20;99.90;;;;;;5036022;28;20473;-67
2023/05/11 00:03:12;;;;;;;13.25;8.38;;;11.20;99.90;;;;;;5040420;28;20562;-67
2023/05/11 00:05:37;;;;;;;13.60;8.10;;;11.20;99.90;;;;;;5042821;28;20047;-67
2023/05/11 00:08:03;;;;;;;15.77;8.70;;;11.20;99.90;;;;;;5070071;28;20041;-67
2023/05/11 00:10:29;;;;;;;14.93;8.98;;;11.30;99.90;;;;;;5073565;28;20086;-67
2023/05/11 00:12:55;;;;;;;14.38;9.02;;;11.20;99.90;;;;;;5039291;28;20124;-67
2023/05/11 00:15:20;;;;;;;17.27;10.45;;;11.20;99.90;;;;;;5036815;28;20076;-67
2023/05/11 00:17:46;;;;;;;16.38;9.95;;;11.20;99.90;;;;;;5034002;28;20164;-67
2023/05/11 00:20:11;;;;;;;18.77;10.45;;;11.20;99.90;;;;;;5035697;28;20442;-67
2023/05/11 00:22:38;;;;;;;27.77;10.90;;;11.20;99.90;;;;;;5038693;28;20041;-67
2023/05/11 00:25:04;;;;;;;15.27;9.73;;;11.20;99.90;;;;;;5033876;28;21943;-67
2023/05/11 00:27:30;;;;;;;20.17;11.23;;;11.20;99.90;;;;;;5036255;28;20047;-66
2023/05/11 00:29:55;;;;;;;15.88;10.27;;;11.30;99.90;;;;;;5041772;28;20041;-66
2023/05/11 00:32:21;;;;;;;15.98;9.70;;;11.20;99.90;;;;;;5039563;28;20084;-66
2023/05/11 00:34:46;;;;;;;22.25;10.95;;;11.20;99.90;;;;;;5040289;28;20128;-67
2023/05/11 00:37:12;;;;;;;16.20;10.55;;;11.20;99.90;;;;;;5038590;28;20098;-67
2023/05/11 00:39:39;;;;;;;17.17;10.32;;;11.20;99.90;;;;;;5037985;28;20048;-66
2023/05/11 00:42:05;;;;;;;15.15;9.65;;;11.20;99.90;;;;;;5036359;28;20049;-66
2023/05/11 00:44:31;;;;;;;16.92;10.13;;;11.20;99.90;;;;;;5075167;28;20121;-67
2023/05/11 00:46:57;;;;;;;31.55;11.68;;;11.20;99.90;;;;;;5041471;28;20176;-66
2023/05/11 00:49:22;;;;;;;19.85;11.10;;;11.20;99.90;;;;;;5041139;28;20057;-66
2023/05/11 00:51:48;;;;;;;20.85;10.88;;;11.20;99.90;;;;;;5044505;28;20202;-66
2023/05/11 00:54:14;;;;;;;18.63;10.75;;;11.20;99.90;;;;;;5040179;28;20086;-66
2023/05/11 00:56:44;;;;;;;17.63;10.98;;;11.20;99.90;;;;;;5038559;28;20052;-66
2023/05/11 00:59:10;;;;;;;21.00;12.07;;;11.10;99.90;;;;;;5039603;28;20435;-66
2023/05/11 01:01:37;;;;;;;20.85;12.48;;;11.10;99.90;;;;;;5038684;28;20041;-66
2023/05/11 01:04:03;;;;;;;21.05;12.57;;;11.10;99.90;;;;;;5041001;28;20127;-66
2023/05/11 01:06:46;;;;;;;22.35;12.60;;;11.10;99.90;;;;;;5040429;28;20076;-66
2023/05/11 01:09:26;;;;;;;22.50;11.98;;;11.20;99.90;;;;;;5041444;28;20044;-66
2023/05/11 01:12:17;;;;;;;23.30;12.93;;;11.10;99.90;;;;;;5043419;28;20056;-66
2023/05/11 01:15:09;;;;;;;23.17;12.85;;;11.10;99.90;;;;;;5069812;28;20045;-66
2023/05/11 01:17:49;;;;;;;25.55;12.98;;;11.10;99.90;;;;;;5043055;28;20051;-66
2023/05/11 01:20:20;;;;;;;24.40;13.52;;;11.10;99.90;;;;;;5038264;28;20056;-66
2023/05/11 01:23:04;;;;;;;24.10;13.30;;;11.10;99.90;;;;;;5038976;28;20132;-66
2023/05/11 01:26:07;;;;;;;20.33;12.77;;;11.00;99.90;;;;;;5041394;28;20044;-66
2023/05/11 01:29:10;;;;;;;21.52;13.00;;;11.10;99.90;;;;;;5039324;28;20037;-66
2023/05/11 01:31:37;;;;;;;;;;;11.00;99.90;;;;;;5039852;28;20044;-66
2023/05/11 01:34:11;;;;;;;22.08;13.25;;;11.10;99.90;;;;;;5035741;28;19920;-66
2023/05/11 01:36:44;;;;;;;24.02;13.43;;;11.20;99.90;;;;;;5041307;28;20091;-66
2023/05/11 01:39:12;;;;;;;27.60;14.35;;;11.10;99.90;;;;;;5041952;28;20079;-66
2023/05/11 01:41:40;;;;;;;26.55;14.60;;;11.20;99.90;;;;;;5043391;28;20744;-66
2023/05/11 01:44:09;;;;;;;26.88;13.80;;;11.20;99.90;;;;;;5035573;28;20041;-66
2023/05/11 01:46:34;;;;;;;25.05;12.98;;;11.20;99.90;;;;;;5040441;28;20136;-66
2023/05/11 01:49:08;;;;;;;22.45;12.77;;;11.10;99.90;;;;;;5042464;28;20160;-66
2023/05/11 01:51:37;;;;;;;22.30;13.10;;;11.10;99.90;;;;;;5040863;28;20106;-66
2023/05/11 01:54:06;;;;;;;20.40;11.95;;;11.10;99.90;;;;;;5043403;28;20047;-66
2023/05/11 01:56:32;;;;;;;24.08;13.82;;;11.10;99.90;;;;;;5046025;28;20123;-66
2023/05/11 01:58:59;;;;;;;20.13;11.38;;;11.20;99.90;;;;;;5043202;28;20426;-66
2023/05/11 02:01:26;;;;;;;19.40;12.25;;;11.10;99.90;;;;;;5073467;28;20123;-66
2023/05/11 02:03:53;;;;;;;22.67;13.23;;;11.10;99.90;;;;;;5042450;28;20103;-66
2023/05/11 02:06:20;;;;;;;25.15;14.75;;;11.10;99.90;;;;;;5041997;28;20086;-66
2023/05/11 02:08:47;;;;;;;47.55;16.30;;;11.10;99.90;;;;;;5072544;28;20041;-66
2023/05/11 02:11:14;;;;;;;27.15;14.55;;;11.10;99.90;;;;;;5073262;28;20412;-66
2023/05/11 02:13:43;;;;;;;37.03;16.85;;;11.20;99.90;;;;;;5042545;28;20047;-66
2023/05/11 02:16:11;;;;;;;37.83;14.75;;;11.20;99.90;;;;;;5044485;28;20033;-65
2023/05/11 02:18:39;;;;;;;26.48;14.23;;;11.20;99.90;;;;;;5044120;28;20047;-64
2023/05/11 02:21:08;;;;;;;25.30;13.48;;;11.20;99.90;;;;;;5049725;28;20064;-65
2023/05/11 02:23:35;;;;;;;26.63;13.38;;;11.10;99.90;;;;;;5051618;28;20090;-64
2023/05/11 02:26:02;;;;;;;26.77;14.85;;;11.10;99.90;;;;;;5051911;28;20430;-64
2023/05/11 02:28:28;;;;;;;30.17;15.25;;;11.10;99.90;;;;;;5031428;28;20170;-64
2023/05/11 02:30:59;;;;;;;32.60;15.68;;;11.10;99.90;;;;;;5045789;28;20119;-65
2023/05/11 02:33:29;;;;;;;33.22;16.67;;;11.00;99.90;;;;;;5044548;28;20059;-65
2023/05/11 02:35:56;;;;;;;28.45;15.10;;;11.10;99.90;;;;;;5046924;28;20420;-65
2023/05/11 02:38:34;;;;;;;29.35;15.57;;;11.00;99.90;;;;;;5045049;28;20059;-65
2023/05/11 02:41:09;;;;;;;32.45;16.08;;;11.10;99.90;;;;;;5041062;28;20045;-65
2023/05/11 02:43:39;;;;;;;29.20;15.80;;;11.10;99.90;;;;;;5044888;28;20103;-65
2023/05/11 02:46:09;;;;;;;31.77;16.13;;;11.10;99.90;;;;;;5046449;28;20033;-66
2023/05/11 02:48:42;;;;;;;30.60;15.25;;;11.10;99.90;;;;;;5043076;28;20037;-66
2023/05/11 02:51:11;;;;;;;31.30;15.93;;;11.10;99.90;;;;;;5045813;28;20037;-66
2023/05/11 02:53:38;;;;;;;31.48;16.02;;;11.10;99.90;;;;;;5041102;28;20041;-66
2023/05/11 02:56:05;;;;;;;29.65;15.63;;;11.10;99.90;;;;;;5077157;28;20044;-65
2023/05/11 02:58:31;;;;;;;30.02;15.70;;;11.10;99.90;;;;;;5077486;28;20033;-66
2023/05/11 03:00:57;;;;;;;29.40;15.70;;;11.10;99.90;;;;;;5044077;28;20044;-65
2023/05/11 03:03:23;;;;;;;37.05;17.30;;;11.10;99.90;;;;;;5040372;28;20051;-66
2023/05/11 03:05:50;;;;;;;37.58;18.05;;;11.10;99.90;;;;;;5043194;28;20048;-66
2023/05/11 03:08:18;;;;;;;30.15;15.95;;;11.20;99.90;;;;;;5046590;28;20056;-66
2023/05/11 03:10:45;;;;;;;32.65;17.23;;;11.20;99.90;;;;;;5044711;28;20032;-66
2023/05/11 03:13:11;;;;;;;30.35;16.08;;;11.20;99.90;;;;;;5045098;28;20037;-66
2023/05/11 03:15:37;;;;;;;32.08;16.42;;;11.10;99.90;;;;;;5045979;28;20377;-66
2023/05/11 03:18:05;;;;;;;33.20;16.45;;;11.20;99.90;;;;;;5047708;28;20041;-66
2023/05/11 03:20:34;;;;;;;30.80;16.33;;;11.20;99.90;;;;;;5039553;28;20104;-65
2023/05/11 03:23:00;;;;;;;32.33;15.68;;;11.30;99.90;;;;;;5045432;28;20399;-66
2023/05/11 03:25:27;;;;;;;33.35;16.08;;;11.20;99.90;;;;;;5042107;28;20042;-66
2023/05/11 03:27:54;;;;;;;35.40;16.60;;;11.20;99.90;;;;;;5042888;28;20033;-66
2023/05/11 03:30:21;;;;;;;35.17;17.13;;;11.20;99.90;;;;;;5045529;28;20052;-66
2023/05/11 03:32:47;;;;;;;31.13;16.30;;;11.20;99.90;;;;;;5041714;28;20132;-65
2023/05/11 03:35:12;;;;;;;30.42;16.38;;;11.20;99.90;;;;;;5042733;28;20464;-65
2023/05/11 03:37:39;;;;;;;38.25;17.17;;;11.30;99.90;;;;;;5045663;28;20044;-65
2023/05/11 03:40:06;;;;;;;32.92;15.98;;;11.30;99.90;;;;;;5044617;28;20124;-65
2023/05/11 03:42:34;;;;;;;42.83;18.17;;;11.30;99.90;;;;;;5043806;28;20057;-65
2023/05/11 03:45:01;;;;;;;38.28;18.25;;;11.30;99.90;;;;;;5044853;28;20074;-65
2023/05/11 03:47:28;;;;;;;40.08;17.98;;;11.40;99.90;;;;;;5040839;28;20044;-66
2023/05/11 03:49:57;;;;;;;44.00;18.00;;;11.40;99.90;;;;;;5037720;28;20047;-65
2023/05/11 03:52:23;;;;;;;37.28;17.58;;;11.40;99.90;;;;;;5042104;28;21139;-65
2023/05/11 03:54:49;;;;;;;35.85;18.08;;;11.40;99.90;;;;;;5040447;28;20044;-65
2023/05/11 03:57:15;;;;;;;32.88;16.75;;;11.40;99.90;;;;;;5038953;28;20033;-65
2023/05/11 03:59:41;;;;;;;39.88;17.42;;;11.50;99.90;;;;;;5054241;28;20041;-65
2023/05/11 04:02:07;;;;;;;34.60;17.05;;;11.50;99.90;;;;;;5044018;28;20385;-65
2023/05/11 04:04:33;;;;;;;53.67;19.73;;;11.50;99.90;;;;;;5042948;28;20629;-65
2023/05/11 04:06:59;;;;;;;33.50;16.50;;;11.50;99.90;;;;;;5043321;28;20123;-65
2023/05/11 04:09:24;;;;;;;35.72;17.30;;;11.50;99.90;;;;;;5037669;28;20033;-65
2023/05/11 04:11:50;;;;;;;38.05;17.45;;;11.50;99.90;;;;;;5040711;28;20048;-66
2023/05/11 04:14:19;;;;;;;34.70;17.95;;;11.50;99.90;;;;;;5040331;28;20145;-66
2023/05/11 04:16:45;;;;;;;38.30;17.38;;;11.50;99.90;;;;;;5040757;28;20483;-66
2023/05/11 04:19:11;;;;;;;33.45;16.63;;;11.60;99.90;;;;;;5042449;28;20110;-65
2023/05/11 04:21:36;;;;;;;34.55;17.20;;;11.50;99.90;;;;;;5041214;28;20050;-66
2023/05/11 04:24:02;;;;;;;42.85;17.35;;;11.60;99.90;;;;;;5041227;28;20036;-65
2023/05/11 04:26:28;;;;;;;40.65;17.75;;;11.60;99.90;;;;;;5040321;28;20041;-66
2023/05/11 04:28:53;;;;;;;34.25;17.52;;;11.60;99.90;;;;;;5042150;28;20032;-65
2023/05/11 04:31:19;;;;;;;39.08;17.70;;;11.60;99.90;;;;;;5037439;28;20037;-65
2023/05/11 04:33:45;;;;;;;36.47;17.23;;;11.60;99.90;;;;;;5040235;28;20094;-65
2023/05/11 04:36:11;;;;;;;38.42;17.50;;;11.60;99.90;;;;;;5046609;28;20388;-65
2023/05/11 04:38:36;;;;;;;36.00;17.15;;;11.50;99.90;;;;;;5049808;28;20184;-65
2023/05/11 04:41:03;;;;;;;36.28;17.52;;;11.60;99.90;;;;;;5046783;28;20068;-65
2023/05/11 04:43:29;;;;;;;35.90;17.30;;;11.70;99.90;;;;;;5048395;28;20053;-65
2023/05/11 04:45:54;;;;;;;41.10;17.90;;;11.70;99.90;;;;;;5030263;28;20050;-65
2023/05/11 04:48:20;;;;;;;37.95;17.75;;;11.70;99.90;;;;;;5047049;28;20041;-66
2023/05/11 04:50:46;;;;;;;39.00;18.17;;;11.70;99.90;;;;;;5046599;28;20395;-66
2023/05/11 04:53:11;;;;;;;39.55;18.55;;;11.70;99.90;;;;;;5049453;28;20099;-65
2023/05/11 04:55:37;;;;;;;36.85;16.65;;;11.70;99.90;;;;;;5046535;28;20040;-66
2023/05/11 04:58:02;;;;;;;36.40;18.27;;;11.80;99.90;;;;;;5043002;28;20041;-66
2023/05/11 05:00:28;;;;;;;42.15;19.08;;;11.70;99.90;;;;;;5046577;28;20033;-66
2023/05/11 05:02:53;;;;;;;41.83;18.85;;;11.70;99.90;;;;;;5047177;28;20119;-66
2023/05/11 05:05:19;;;;;;;38.85;18.80;;;11.70;99.90;;;;;;5047809;28;20396;-65
2023/05/11 05:07:44;;;;;;;39.25;18.85;;;11.70;99.90;;;;;;5046198;28;20047;-66
2023/05/11 05:10:11;;;;;;;41.20;18.92;;;11.80;99.90;;;;;;5053680;28;20079;-66
2023/05/11 05:12:40;;;;;;;38.63;18.25;;;11.70;99.90;;;;;;5045973;28;20044;-66
2023/05/11 05:15:07;;;;;;;40.53;17.75;;;11.80;99.90;;;;;;5039254;28;20029;-66
2023/05/11 05:17:32;;;;;;;43.30;20.27;;;11.80;99.90;;;;;;5046915;28;20056;-66
2023/05/11 05:19:58;;;;;;;42.88;19.60;;;11.80;99.90;;;;;;5047503;28;20164;-65
2023/05/11 05:22:24;;;;;;;51.10;20.17;;;11.80;99.90;;;;;;5047771;28;20545;-65
2023/05/11 05:24:49;;;;;;;49.40;20.95;;;11.90;99.90;;;;;;5051709;28;20037;-65
2023/05/11 05:27:15;;;;;;;42.67;19.25;;;11.80;99.90;;;;;;5044850;28;20392;-66
2023/05/11 05:29:40;;;;;;;42.63;20.02;;;11.80;99.90;;;;;;5046865;28;20510;-65
2023/05/11 05:32:06;;;;;;;43.28;19.67;;;11.70;99.90;;;;;;5044723;28;20392;-66
2023/05/11 05:34:32;;;;;;;43.55;20.35;;;11.80;99.90;;;;;;5044302;28;20040;-66
2023/05/11 05:36:57;;;;;;;52.88;20.75;;;11.80;99.90;;;;;;5044243;28;20069;-66
2023/05/11 05:39:23;;;;;;;43.63;19.17;;;11.80;99.90;;;;;;5041919;28;20116;-66
2023/05/11 05:41:48;;;;;;;44.05;20.48;;;11.80;99.90;;;;;;5052515;28;20448;-65
2023/05/11 05:44:14;;;;;;;67.63;21.88;;;11.90;99.90;;;;;;5046833;28;20029;-65
2023/05/11 05:46:39;;;;;;;40.50;19.95;;;11.80;99.90;;;;;;5046402;28;20036;-65
2023/05/11 05:49:05;;;;;;;45.70;19.98;;;11.80;99.90;;;;;;5044278;28;20163;-65
2023/05/11 05:51:31;;;;;;;64.30;22.02;;;11.80;99.90;;;;;;5043633;28;20435;-64
2023/05/11 05:53:57;;;;;;;74.72;22.38;;;11.80;99.90;;;;;;5034161;28;20415;-64
2023/05/11 05:56:22;;;;;;;74.90;22.77;;;11.70;99.90;;;;;;5047505;28;20043;-64
2023/05/11 05:58:48;;;;;;;81.95;23.42;;;11.80;99.90;;;;;;5046366;28;20048;-64
2023/05/11 06:01:14;;;;;;;73.22;22.25;;;11.70;99.90;;;;;;5046740;28;20045;-65
2023/05/11 06:03:39;;;;;;;79.50;22.08;;;11.70;99.90;;;;;;5044024;28;20511;-64
2023/05/11 06:06:06;;;;;;;94.53;23.75;;;11.70;99.90;;;;;;5046970;28;20044;-65
2023/05/11 06:08:32;;;;;;;71.57;22.10;;;11.70;99.90;;;;;;5041147;28;20037;-66
2023/05/11 06:10:57;;;;;;;110.93;23.40;;;11.70;99.90;;;;;;5043404;28;20403;-68
2023/05/11 06:13:23;;;;;;;105.35;22.92;;;11.60;99.90;;;;;;5041066;28;20131;-68
2023/05/11 06:15:48;;;;;;;102.55;21.98;;;11.70;99.90;;;;;;5043602;28;20041;-68
2023/05/11 06:18:14;;;;;;;78.63;19.75;;;11.70;99.90;;;;;;5040394;28;20474;-69
2023/05/11 06:20:41;;;;;;;74.57;19.60;;;11.60;99.90;;;;;;5036959;28;20404;-66
2023/05/11 06:23:06;;;;;;;58.05;16.95;;;11.50;99.90;;;;;;5042201;28;20114;-64
2023/05/11 06:25:35;;;;;;;41.97;15.20;;;11.50;99.90;;;;;;5039970;28;20077;-62
2023/05/11 06:28:01;;;;;;;43.30;14.50;;;11.60;99.90;;;;;;5043718;28;20029;-64
2023/05/11 06:30:27;;;;;;;66.32;17.75;;;11.50;99.90;;;;;;5049246;28;20507;-64
2023/05/11 06:32:52;;;;;;;42.40;16.88;;;11.50;99.90;;;;;;5041395;28;20044;-65
2023/05/11 06:35:18;;;;;;;41.00;15.45;;;11.40;99.90;;;;;;5037578;28;20134;-66
2023/05/11 06:37:43;;;;;;;43.60;15.32;;;11.40;99.90;;;;;;5041713;28;20049;-64
2023/05/11 06:40:09;;;;;;;40.25;16.10;;;11.50;99.90;;;;;;5070043;28;20408;-64
2023/05/11 06:42:34;;;;;;;42.88;14.63;;;11.50;99.90;;;;;;5048626;28;20040;-65
2023/05/11 06:45:00;;;;;;;55.30;14.65;;;11.50;99.90;;;;;;5047679;28;21017;-63
2023/05/11 06:47:26;;;;;;;42.92;13.73;;;11.50;99.90;;;;;;5045174;28;20400;-67
2023/05/11 06:49:51;;;;;;;41.53;13.88;;;11.50;99.90;;;;;;5047892;28;20479;-64
2023/05/11 06:52:17;;;;;;;31.70;13.20;;;11.40;99.90;;;;;;5037130;28;20080;-64
2023/05/11 06:54:43;;;;;;;26.67;9.50;;;11.50;99.90;;;;;;5041297;28;20483;-63
2023/05/11 07:00:49;;;;;;;22.02;8.00;;;11.40;99.90;;;;;;5050856;28;20024;-64
2023/05/11 07:03:15;;;;;;;24.45;8.13;;;11.30;99.90;;;;;;5049909;28;20395;-64
2023/05/11 07:05:41;;;;;;;27.83;8.88;;;11.40;99.90;;;;;;5047412;28;20033;-64
2023/05/11 07:08:06;;;;;;;19.77;7.07;;;11.30;99.90;;;;;;5079812;28;20464;-63
2023/05/11 07:10:32;;;;;;;21.00;7.18;;;11.30;99.90;;;;;;5045649;28;20095;-64
2023/05/11 07:12:58;;;;;;;18.48;6.60;;;11.30;99.90;;;;;;5048477;28;20055;-63
2023/05/11 07:15:23;;;;;;;17.20;6.95;;;11.30;99.90;;;;;;5048207;28;20614;-63
2023/05/11 07:18:00;;;;;;;26.05;8.45;;;11.40;99.90;;;;;;5044515;28;20045;-63
2023/05/11 07:20:26;;;;;;;38.50;10.68;;;11.40;99.90;;;;;;5080970;28;20103;-63
2023/05/11 07:22:55;;;;;;;28.77;11.05;;;11.50;99.90;;;;;;5048051;28;20408;-64
2023/05/11 07:25:21;;;;;;;42.30;11.48;;;11.40;99.90;;;;;;5046981;28;20128;-64
2023/05/11 07:27:46;;;;;;;35.67;11.68;;;11.40;99.90;;;;;;5047563;28;20112;-64
2023/05/11 07:30:12;;;;;;;34.63;11.60;;;11.50;99.90;;;;;;5040774;28;20037;-63
2023/05/11 07:32:38;;;;;;;33.60;10.27;;;11.40;99.90;;;;;;5045125;28;20046;-64
2023/05/11 07:35:04;;;;;;;32.20;9.73;;;11.40;99.90;;;;;;5047168;28;20083;-65
2023/05/11 07:37:29;;;;;;;30.33;8.63;;;11.50;99.90;;;;;;5049129;28;20127;-64
2023/05/11 07:39:55;;;;;;;22.33;7.45;;;11.60;99.90;;;;;;5033387;28;20463;-65
2023/05/11 07:42:21;;;;;;;19.30;7.03;;;11.60;99.90;;;;;;5032065;28;20618;-65
2023/05/11 07:44:46;;;;;;;20.80;6.22;;;11.60;99.90;;;;;;5044192;28;20392;-65
2023/05/11 07:47:12;;;;;;;15.10;5.53;;;11.60;99.90;;;;;;5070931;28;20480;-65
2023/05/11 07:49:37;;;;;;;13.80;4.97;;;11.50;99.90;;;;;;5039593;28;20029;-64
2023/05/11 07:52:03;;;;;;;14.10;4.10;;;11.60;99.90;;;;;;5043346;28;20048;-64
2023/05/11 07:54:28;;;;;;;10.13;3.78;;;11.80;99.90;;;;;;5032471;28;20523;-64
2023/05/11 07:56:54;;;;;;;9.02;3.20;;;11.90;99.90;;;;;;5045664;28;20045;-65
2023/05/11 07:59:19;;;;;;;5.93;2.63;;;12.00;99.90;;;;;;5048206;28;20128;-64
2023/05/11 08:01:45;;;;;;;7.18;2.80;;;12.10;99.90;;;;;;5049496;28;20076;-64
2023/05/11 08:04:11;;;;;;;6.28;2.35;;;12.10;99.90;;;;;;5042091;28;20746;-67
2023/05/11 08:06:37;;;;;;;6.95;2.30;;;12.10;99.90;;;;;;5044993;28;20147;-67
2023/05/11 08:09:02;;;;;;;5.50;2.05;;;12.20;99.90;;;;;;5045090;28;20124;-68
2023/05/11 08:11:28;;;;;;;7.20;2.42;;;12.30;99.90;;;;;;5036586;28;20124;-67
2023/05/11 08:13:53;;;;;;;5.63;2.50;;;12.30;99.90;;;;;;5043395;28;20059;-70
2023/05/11 08:16:19;;;;;;;7.43;3.00;;;12.30;99.90;;;;;;5052659;28;20555;-70
2023/05/11 08:18:44;;;;;;;10.55;3.35;;;12.50;99.90;;;;;;5042820;28;20515;-71
2023/05/11 08:21:10;;;;;;;12.35;3.72;;;12.40;99.90;;;;;;5050499;28;20384;-70
2023/05/11 08:23:36;;;;;;;8.48;3.83;;;12.50;99.90;;;;;;5033095;28;20488;-71
2023/05/11 08:26:01;;;;;;;13.32;4.68;;;12.60;99.90;;;;;;5048952;28;20044;-71
2023/05/11 08:28:27;;;;;;;10.23;4.50;;;12.60;99.90;;;;;;5046377;28;20059;-71
2023/05/11 08:30:54;;;;;;;15.15;5.70;;;12.60;99.90;;;;;;5047055;28;20068;-71
2023/05/11 08:33:19;;;;;;;14.27;5.18;;;12.70;99.90;;;;;;5086424;28;20507;-70
2023/05/11 08:35:45;;;;;;;15.35;5.25;;;12.80;99.90;;;;;;5076353;28;20044;-71
2023/05/11 08:38:13;;;;;;;16.98;5.72;;;12.80;99.90;;;;;;5045662;28;20029;-70
2023/05/11 08:40:45;;;;;;;13.73;5.47;;;12.90;99.90;;;;;;5050594;28;20037;-69
2023/05/11 08:43:12;;;;;;;;;;;13.10;99.90;;;;;;5048197;28;20045;-70
2023/05/11 08:45:40;;;;;;;11.63;5.28;;;13.10;99.90;;;;;;5047119;28;19917;-68
2023/05/11 08:48:05;;;;;;;10.82;4.55;;;13.10;99.90;;;;;;5045382;28;20041;-69
2023/05/11 08:50:31;;;;;;;13.20;5.18;;;13.10;99.90;;;;;;5039366;28;20550;-70
2023/05/11 08:52:57;;;;;;;11.63;4.90;;;13.10;99.90;;;;;;5035939;28;20045;-71
2023/05/11 08:55:25;;;;;;;12.60;5.13;;;13.30;99.90;;;;;;5084665;28;20040;-71
2023/05/11 08:57:52;;;;;;;10.70;5.20;;;13.30;99.90;;;;;;5045306;28;20065;-70
2023/05/11 09:00:19;;;;;;;9.13;4.47;;;13.50;99.90;;;;;;5084255;28;20079;-71
2023/05/11 09:02:46;;;;;;;10.75;4.15;;;13.50;99.90;;;;;;5046123;28;20045;-69
2023/05/11 09:05:12;;;;;;;9.38;4.38;;;13.60;99.90;;;;;;5051338;28;20090;-70
2023/05/11 09:07:41;;;;;;;8.88;4.07;;;13.70;99.90;;;;;;5052071;28;20037;-71
2023/05/11 09:10:07;;;;;;;5.82;3.50;;;13.80;99.90;;;;;;5045654;28;20448;-70
2023/05/11 09:12:34;;;;;;;8.27;4.15;;;14.00;99.90;;;;;;5047081;28;20503;-71
2023/05/11 09:15:00;;;;;;;6.82;3.58;;;14.20;99.90;;;;;;5039444;28;20834;-71
2023/05/11 09:17:27;;;;;;;7.10;4.22;;;14.10;99.90;;;;;;5051753;28;20045;-71
2023/05/11 09:20:04;;;;;;;8.10;3.88;;;14.30;99.90;;;;;;5043748;28;20398;-71
2023/05/11 09:22:39;;;;;;;6.72;3.95;;;14.40;99.90;;;;;;5044926;28;20045;-71
2023/05/11 09:25:05;;;;;;;7.35;3.92;;;14.50;99.90;;;;;;5049267;28;20033;-71
2023/05/11 09:27:31;;;;;;;7.15;4.63;;;14.60;99.90;;;;;;5048110;28;20110;-71
2023/05/11 09:30:13;;;;;;;9.02;4.97;;;14.80;99.90;;;;;;5041336;28;20037;-70
2023/05/11 09:32:58;;;;;;;7.75;4.22;;;14.70;99.90;;;;;;5032845;28;20378;-70
2023/05/11 09:35:32;;;;;;;6.53;3.72;;;14.90;99.90;;;;;;5043925;28;20424;-70
2023/05/11 09:38:08;;;;;;;5.50;3.70;;;15.00;99.90;;;;;;5044803;28;20412;-70
2023/05/11 09:40:43;;;;;;;6.68;4.03;;;15.20;99.90;;;;;;5072028;28;20049;-69
2023/05/11 09:43:17;;;;;;;7.05;3.90;;;15.50;99.90;;;;;;5036050;28;20095;-68
2023/05/11 09:45:50;;;;;;;6.72;3.78;;;15.70;99.90;;;;;;5050545;28;20041;-68
2023/05/11 09:48:19;;;;;;;4.22;2.70;;;15.80;99.90;;;;;;5036246;28;20400;-67
2023/05/11 09:50:45;;;;;;;3.33;2.15;;;15.80;99.90;;;;;;5041720;28;20094;-67
2023/05/11 09:53:11;;;;;;;2.70;1.98;;;15.90;99.90;;;;;;5050440;28;20033;-66
2023/05/11 09:55:36;;;;;;;3.47;2.20;;;16.00;99.90;;;;;;5047758;28;20032;-67
2023/05/11 09:58:03;;;;;;;2.20;1.70;;;16.10;99.90;;;;;;5046899;28;20045;-67
2023/05/11 10:00:29;;;;;;;2.08;1.60;;;16.20;99.90;;;;;;5065573;28;20033;-66
2023/05/11 10:03:06;;;;;;;1.52;1.13;;;16.40;99.90;;;;;;5048527;28;20041;-66
2023/05/11 10:05:35;;;;;;;1.83;1.40;;;16.40;99.90;;;;;;5049472;28;20111;-66
2023/05/11 10:08:02;;;;;;;2.13;1.10;;;16.50;99.90;;;;;;5049428;28;20106;-66
2023/05/11 10:10:30;;;;;;;0.88;0.88;;;16.50;99.90;;;;;;5081174;28;20102;-65
2023/05/11 10:12:58;;;;;;;1.30;1.10;;;16.40;99.90;;;;;;5048630;28;20052;-65
2023/05/11 10:15:27;;;;;;;3.08;1.20;;;16.50;99.90;;;;;;5068525;28;20280;-66
2023/05/11 10:17:59;;;;;;;1.27;0.80;;;16.40;99.90;;;;;;5075588;28;20403;-66
2023/05/11 10:20:26;;;;;;;1.38;1.23;;;16.40;99.90;;;;;;5072966;28;20045;-66
2023/05/11 10:22:53;;;;;;;1.63;1.13;;;16.40;99.90;;;;;;5047124;28;20056;-66
2023/05/11 10:25:24;;;;;;;1.92;1.35;;;16.50;99.90;;;;;;5044704;28;20037;-65
2023/05/11 10:27:50;;;;;;;1.33;1.00;;;16.50;99.90;;;;;;5041690;28;20047;-65
2023/05/11 10:30:16;;;;;;;1.27;1.10;;;16.50;99.90;;;;;;5035547;28;20086;-65
2023/05/11 10:32:45;;;;;;;1.42;1.05;;;16.50;99.90;;;;;;5049234;28;20072;-64
2023/05/11 10:35:11;;;;;;;1.58;1.20;;;16.60;99.90;;;;;;5043169;28;20037;-65
2023/05/11 10:37:38;;;;;;;2.92;1.30;;;16.60;99.90;;;;;;5043347;28;20523;-65
2023/05/11 10:40:06;;;;;;;1.45;1.35;;;16.70;99.90;;;;;;5041480;28;20041;-65
2023/05/11 10:43:03;;;;;;;1.52;1.30;;;16.70;99.90;;;;;;5038762;28;20248;-65
2023/05/11 10:45:57;;;;;;;1.70;1.40;;;16.70;99.90;;;;;;5043023;28;20044;-65
2023/05/11 10:48:51;;;;;;;1.70;1.20;;;16.70;99.90;;;;;;5033006;28;20055;-65
2023/05/11 10:51:38;;;;;;;2.17;1.60;;;16.70;99.90;;;;;;5044436;28;20072;-65
2023/05/11 10:54:41;;;;;;;1.85;1.30;;;16.70;99.90;;;;;;5046097;28;20136;-66
2023/05/11 10:57:36;;;;;;;0.82;0.65;;;16.80;99.90;;;;;;5037586;28;20052;-67
2023/05/11 11:00:17;;;;;;;1.33;0.90;;;16.80;99.90;;;;;;5036103;28;20045;-65
2023/05/11 11:02:44;;;;;;;1.00;0.90;;;16.70;99.90;;;;;;5048243;28;20061;-64
2023/05/11 11:05:14;;;;;;;1.63;1.25;;;16.90;99.90;;;;;;5076354;28;20048;-66
2023/05/11 11:07:57;;;;;;;1.35;1.20;;;17.00;99.90;;;;;;5048369;28;20045;-65
2023/05/11 11:10:29;;;;;;;1.00;0.90;;;17.00;99.90;;;;;;5034617;28;20049;-64
2023/05/11 11:13:23;;;;;;;1.08;0.98;;;17.10;99.90;;;;;;5075535;28;20094;-64
2023/05/11 11:15:54;;;;;;;1.42;1.20;;;17.20;99.90;;;;;;5042203;28;20100;-65
2023/05/11 11:18:32;;;;;;;1.65;1.00;;;17.40;99.90;;;;;;5038825;28;20123;-64
2023/05/11 11:20:58;;;;;;;1.00;0.90;;;17.50;99.90;;;;;;5044162;28;20140;-64
2023/05/11 11:23:43;;;;;;;1.30;1.20;;;17.50;99.90;;;;;;5044730;28;20427;-65
2023/05/11 11:26:14;;;;;;;0.90;0.73;;;17.50;99.90;;;;;;5041691;28;20095;-65
2023/05/11 11:29:00;;;;;;;0.60;0.60;;;17.30;99.90;;;;;;5044309;28;20043;-64
2023/05/11 11:31:31;;;;;;;1.50;0.70;;;17.20;99.90;;;;;;5045861;28;20045;-66
2023/05/11 11:33:59;;;;;;;0.95;0.85;;;17.30;99.90;;;;;;5042583;28;20130;-66
2023/05/11 11:36:53;;;;;;;1.15;0.90;;;17.30;99.90;;;;;;5073636;28;20044;-65
2023/05/11 11:39:24;;;;;;;1.00;0.90;;;17.40;99.90;;;;;;5072266;28;20397;-66
2023/05/11 11:42:03;;;;;;;0.93;0.90;;;17.40;99.90;;;;;;5044942;28;20382;-65
2023/05/11 11:44:29;;;;;;;1.08;0.98;;;17.40;99.90;;;;;;5041822;28;20120;-66
2023/05/11 11:47:20;;;;;;;1.23;0.90;;;17.50;99.90;;;;;;5034957;28;20148;-67
2023/05/11 11:49:48;;;;;;;1.30;1.20;;;17.50;99.90;;;;;;5036652;28;20377;-66
2023/05/11 11:52:32;;;;;;;1.98;1.35;;;17.50;99.90;;;;;;5043187;28;20049;-66
2023/05/11 11:54:59;;;;;;;1.70;1.33;;;17.50;99.90;;;;;;5077178;28;20090;-66
2023/05/11 11:57:31;;;;;;;1.70;1.50;;;17.50;99.90;;;;;;5050299;28;20463;-66
2023/05/11 12:00:01;;;;;;;1.23;1.10;;;17.60;99.90;;;;;;5039426;28;20056;-66
2023/05/11 12:02:27;;;;;;;2.20;1.60;;;17.70;99.90;;;;;;5037361;28;20053;-68
2023/05/11 12:05:21;;;;;;;3.38;1.80;;;17.70;99.90;;;;;;5044037;28;20458;-67
2023/05/11 12:07:52;;;;;;;2.45;1.85;;;17.60;99.90;;;;;;5042869;28;20042;-66
2023/05/11 12:10:20;;;;;;;2.03;1.83;;;17.60;99.90;;;;;;5075515;28;20044;-67
2023/05/11 12:12:50;;;;;;;2.95;2.55;;;17.70;99.90;;;;;;5043162;28;20527;-66
2023/05/11 12:15:27;;;;;;;2.95;2.30;;;17.70;99.90;;;;;;5073973;28;20492;-67
2023/05/11 12:17:53;;;;;;;4.47;2.20;;;17.80;99.90;;;;;;5035618;28;20049;-66
2023/05/11 12:20:20;;;;;;;2.50;2.28;;;17.80;99.90;;;;;;5077314;28;20045;-66
2023/05/11 12:22:47;;;;;;;2.83;2.30;;;17.80;99.90;;;;;;5046400;28;20119;-68
2023/05/11 12:25:17;;;;;;;3.35;2.60;;;17.90;99.90;;;;;;5070520;28;20037;-66
2023/05/11 12:28:01;;;;;;;4.45;2.90;;;17.90;99.90;;;;;;5044283;28;20618;-66
2023/05/11 12:30:32;;;;;;;3.58;3.17;;;17.90;99.90;;;;;;5045111;28;20127;-66
2023/05/11 12:32:59;;;;;;;4.13;3.47;;;18.00;99.90;;;;;;5031816;28;20040;-66
2023/05/11 12:35:26;;;;;;;4.75;3.22;;;18.00;99.90;;;;;;5044625;28;20072;-67
2023/05/11 12:37:53;;;;;;;3.42;2.72;;;18.00;99.90;;;;;;5037692;28;20060;-67
2023/05/11 12:40:19;;;;;;;4.25;3.38;;;18.00;99.90;;;;;;5040579;28;20075;-67
2023/05/11 12:42:58;;;;;;;4.63;3.50;;;18.00;99.90;;;;;;5041616;28;20042;-66
2023/05/11 12:45:25;;;;;;;5.53;4.03;;;18.10;99.90;;;;;;5062404;28;20512;-65
2023/05/11 12:47:53;;;;;;;6.00;4.50;;;18.10;99.90;;;;;;5035579;28;20128;-71